Time;durP1;ratioP1;P1;durP2;ratioP2;P2;SDS_P1;SDS_P2;PMS_P1;PMS_P2;Temp;Humidity;BMP_temperature;BMP_pressure;BME280_temperature;BME280_humidity;BME280_pressure;Samples;Min_cycle;Max_cycle;Signal;HPM_P1;HPM_P2
2024/04/24 00:00:30;;;;;;;4.87;1.30;;;;;;;6.15;100.00;101375.50;5435659;26;19991;-38
2024/04/24 00:02:56;;;;;;;2.73;1.00;;;;;;;6.12;100.00;101365.97;5436401;26;20006;-38
2024/04/24 00:05:22;;;;;;;6.78;1.48;;;;;;;6.13;100.00;101366.78;5426527;26;19992;-38
2024/04/24 00:07:47;;;;;;;4.07;1.50;;;;;;;6.08;100.00;101351.25;5420182;26;19992;-38
2024/04/24 00:10:14;;;;;;;4.70;1.27;;;;;;;6.14;100.00;101357.72;5420466;26;20010;-38
2024/04/24 00:12:40;;;;;;;5.72;1.40;;;;;;;6.02;100.00;101335.91;5419633;26;20006;-38
2024/04/24 00:15:05;;;;;;;4.85;1.30;;;;;;;6.11;100.00;101342.00;5420141;26;19996;-38
2024/04/24 00:17:30;;;;;;;4.23;1.30;;;;;;;6.08;100.00;101337.81;5420023;26;20007;-38
2024/04/24 00:19:56;;;;;;;2.63;1.00;;;;;;;6.13;100.00;101345.31;5420768;26;19995;-38
2024/04/24 00:22:21;;;;;;;4.20;1.37;;;;;;;6.13;100.00;101339.94;5419924;26;20373;-38
2024/04/24 00:24:47;;;;;;;4.97;1.27;;;;;;;6.10;100.00;101324.19;5420247;26;19987;-38
2024/04/24 00:27:12;;;;;;;3.77;1.20;;;;;;;6.12;100.00;101327.53;5420010;26;20061;-38
2024/04/24 00:29:37;;;;;;;5.40;1.43;;;;;;;6.09;100.00;101322.53;5420378;26;19999;-38
2024/04/24 00:32:05;;;;;;;4.27;1.47;;;;;;;6.11;100.00;101317.81;5419799;26;20217;-38
2024/04/24 00:34:31;;;;;;;3.55;1.38;;;;;;;6.11;100.00;101320.50;5420252;26;20459;-38
2024/04/24 00:36:56;;;;;;;;;;;;;;;6.19;100.00;101321.19;5420252;26;20074;-38
2024/04/24 00:39:21;;;;;;;5.38;1.30;;;;;;;6.02;100.00;101329.69;5419455;26;19932;-38
2024/04/24 00:41:47;;;;;;;2.97;1.00;;;;;;;6.01;100.00;101325.34;5419351;26;19995;-38
2024/04/24 00:44:12;;;;;;;4.47;1.20;;;;;;;5.91;100.00;101314.88;5419907;26;19991;-38
2024/04/24 00:46:37;;;;;;;3.93;1.13;;;;;;;5.93;100.00;101323.59;5419639;26;20005;-38
2024/04/24 00:49:04;;;;;;;3.33;0.93;;;;;;;5.83;100.00;101318.50;5420214;26;19991;-38
2024/04/24 00:51:30;;;;;;;5.53;0.98;;;;;;;5.83;100.00;101323.88;5419559;26;20027;-38
2024/04/24 00:53:56;;;;;;;5.32;1.00;;;;;;;5.80;100.00;101308.13;5419703;26;20028;-38
2024/04/24 00:56:22;;;;;;;3.72;0.90;;;;;;;5.82;100.00;101321.38;5419474;26;20408;-38
2024/04/24 00:58:47;;;;;;;3.25;0.90;;;;;;;5.75;100.00;101299.81;5419338;26;20068;-38
2024/04/24 01:01:14;;;;;;;3.72;1.00;;;;;;;5.78;100.00;101304.00;5419100;26;19998;-38
2024/04/24 01:03:40;;;;;;;4.93;1.13;;;;;;;5.81;100.00;101303.63;5418749;26;20042;-38
2024/04/24 01:06:05;;;;;;;5.05;1.35;;;;;;;5.79;100.00;101301.09;5419584;26;20004;-38
2024/04/24 01:08:30;;;;;;;2.80;1.07;;;;;;;5.78;100.00;101301.31;5418977;26;20003;-38
2024/04/24 01:10:57;;;;;;;2.53;0.88;;;;;;;5.75;100.00;101293.63;5418964;26;19992;-38
2024/04/24 01:13:22;;;;;;;;;;;;;;;5.85;100.00;101288.78;5420278;26;20015;-38
2024/04/24 01:15:53;;;;;;;2.88;1.00;;;;;;;5.76;100.00;101293.44;5418581;26;19993;-38
2024/04/24 01:18:21;;;;;;;1.95;0.85;;;;;;;5.68;100.00;101272.09;5417978;26;19999;-38
2024/04/24 01:20:47;;;;;;;4.63;1.10;;;;;;;5.72;100.00;101278.75;5418754;26;20019;-38
2024/04/24 01:23:32;;;;;;;4.65;1.65;;;;;;;5.72;100.00;101277.91;5419003;26;19988;-38
2024/04/24 01:26:10;;;;;;;4.05;1.15;;;;;;;5.64;100.00;101263.56;5419316;26;20000;-38
2024/04/24 01:28:36;;;;;;;2.83;0.70;;;;;;;5.71;100.00;101266.34;5419263;26;19992;-38
2024/04/24 01:31:01;;;;;;;2.08;0.80;;;;;;;5.68;100.00;101264.03;5419247;26;20378;-38
2024/04/24 01:33:26;;;;;;;4.40;0.97;;;;;;;5.70;100.00;101272.72;5418654;26;19995;-38
2024/04/24 01:35:52;;;;;;;3.00;1.20;;;;;;;5.71;100.00;101270.84;5418594;26;20439;-38
2024/04/24 01:38:17;;;;;;;3.37;1.10;;;;;;;5.64;100.00;101270.78;5418624;26;19996;-38
2024/04/24 01:40:42;;;;;;;1.43;0.80;;;;;;;5.66;100.00;101274.97;5418705;26;20007;-38
2024/04/24 01:43:08;;;;;;;2.63;0.90;;;;;;;5.64;100.00;101265.44;5418338;26;20011;-38
2024/04/24 01:45:33;;;;;;;2.53;1.07;;;;;;;5.66;100.00;101268.72;5419036;26;19996;-38
2024/04/24 01:47:58;;;;;;;6.03;1.93;;;;;;;5.68;100.00;101264.03;5418390;26;20000;-38
2024/04/24 01:50:24;;;;;;;3.50;1.00;;;;;;;5.66;100.00;101258.00;5418765;26;19995;-38
2024/04/24 01:52:49;;;;;;;4.13;1.00;;;;;;;5.71;100.00;101260.97;5418174;26;20000;-38
2024/04/24 01:55:14;;;;;;;3.50;0.90;;;;;;;5.73;100.00;101264.28;5419023;26;19995;-38
2024/04/24 01:57:39;;;;;;;2.90;0.90;;;;;;;5.60;100.00;101237.31;5418667;26;20378;-38
2024/04/24 02:00:05;;;;;;;1.97;1.10;;;;;;;5.67;100.00;101243.59;5419005;26;20011;-38
2024/04/24 02:02:31;;;;;;;2.15;0.82;;;;;;;5.60;100.00;101245.34;5418207;26;19996;-38
2024/04/24 02:04:56;;;;;;;2.03;1.00;;;;;;;5.66;100.00;101260.69;5418821;26;20010;-38
2024/04/24 02:07:21;;;;;;;3.53;1.00;;;;;;;5.65;100.00;101262.53;5418269;26;20010;-38
2024/04/24 02:09:47;;;;;;;3.93;1.20;;;;;;;5.59;100.00;101251.75;5418255;26;20007;-38
2024/04/24 02:12:12;;;;;;;2.43;1.00;;;;;;;5.60;100.00;101264.13;5417812;26;20015;-38
2024/04/24 02:14:37;;;;;;;2.87;1.03;;;;;;;5.55;100.00;101253.13;5418345;26;20097;-38
2024/04/24 02:17:02;;;;;;;2.67;1.00;;;;;;;5.55;100.00;101256.66;5418036;26;20003;-38
2024/04/24 02:19:28;;;;;;;2.33;1.00;;;;;;;5.54;100.00;101246.94;5418650;26;20014;-38
2024/04/24 02:21:53;;;;;;;3.53;1.20;;;;;;;5.48;100.00;101254.91;5417668;26;19996;-38
2024/04/24 02:27:03;;;;;;;5.43;1.00;;;;;;;5.44;100.00;101235.69;5419114;26;20023;-38
2024/04/24 02:29:28;;;;;;;1.83;0.93;;;;;;;5.43;100.00;101224.13;5418068;26;19995;-38
2024/04/24 02:31:53;;;;;;;2.83;1.10;;;;;;;5.43;100.00;101221.44;5417694;26;19999;-38
2024/04/24 02:34:19;;;;;;;3.90;1.27;;;;;;;5.46;100.00;101219.38;5417664;26;20432;-38
2024/04/24 02:36:44;;;;;;;4.40;1.97;;;;;;;5.41;100.00;101223.47;5417406;26;19999;-38
2024/04/24 02:39:09;;;;;;;3.37;1.17;;;;;;;5.36;100.00;101207.09;5417974;26;19996;-38
2024/04/24 02:41:35;;;;;;;3.63;1.20;;;;;;;5.40;100.00;101211.06;5417230;26;20003;-38
2024/04/24 02:44:00;;;;;;;2.60;1.30;;;;;;;5.41;100.00;101211.91;5417275;26;20007;-38
2024/04/24 02:46:25;;;;;;;3.63;1.00;;;;;;;5.38;100.00;101207.75;5417230;26;20457;-38
2024/04/24 02:48:51;;;;;;;4.37;1.20;;;;;;;5.25;100.00;101172.72;5417208;26;20007;-38
2024/04/24 02:51:16;;;;;;;4.43;1.20;;;;;;;5.33;100.00;101185.22;5417414;26;20007;-38
2024/04/24 02:53:41;;;;;;;4.57;1.10;;;;;;;5.32;100.00;101192.44;5417797;26;19996;-38
2024/04/24 02:56:06;;;;;;;3.23;1.13;;;;;;;5.30;100.00;101182.91;5417685;26;20320;-38
2024/04/24 02:58:32;;;;;;;5.20;1.00;;;;;;;5.29;100.00;101195.47;5417326;26;20007;-38
2024/04/24 03:00:57;;;;;;;4.17;1.23;;;;;;;5.31;100.00;101192.59;5417578;26;20000;-38
2024/04/24 03:03:23;;;;;;;4.50;1.30;;;;;;;5.23;100.00;101188.19;5417292;26;20214;-38
2024/04/24 03:05:48;;;;;;;2.30;1.00;;;;;;;5.21;100.00;101174.13;5417557;26;20002;-38
2024/04/24 03:08:13;;;;;;;2.50;0.90;;;;;;;5.20;100.00;101187.72;5416944;26;20003;-38
2024/04/24 03:10:39;;;;;;;3.53;1.25;;;;;;;5.15;100.00;101183.75;5416998;26;20000;-38
2024/04/24 03:13:04;;;;;;;3.40;1.10;;;;;;;5.16;100.00;101176.53;5417046;26;20035;-38
2024/04/24 03:15:29;;;;;;;3.57;0.93;;;;;;;5.08;100.00;101173.97;5416765;26;20037;-38
2024/04/24 03:17:55;;;;;;;4.43;1.10;;;;;;;5.08;100.00;101165.94;5416772;26;20327;-38
2024/04/24 03:20:20;;;;;;;1.97;0.90;;;;;;;5.05;100.00;101164.44;5416965;26;20435;-38
2024/04/24 03:22:45;;;;;;;4.90;0.90;;;;;;;5.00;100.00;101156.13;5416696;26;20003;-38
2024/04/24 03:25:11;;;;;;;3.87;1.10;;;;;;;4.99;100.00;101157.16;5417422;26;20015;-38
2024/04/24 03:27:36;;;;;;;2.30;0.90;;;;;;;4.97;100.00;101147.63;5416851;26;20006;-38
2024/04/24 03:30:01;;;;;;;7.03;1.47;;;;;;;4.91;100.00;101141.16;5417150;26;20209;-38
2024/04/24 03:32:27;;;;;;;5.90;1.57;;;;;;;4.80;100.00;101134.44;5416432;26;20006;-38
2024/04/24 03:34:52;;;;;;;3.53;0.83;;;;;;;4.82;100.00;101140.44;5417053;26;20600;-38
2024/04/24 03:37:17;;;;;;;2.60;0.90;;;;;;;4.88;100.00;101154.94;5416785;26;20447;-38
2024/04/24 03:39:43;;;;;;;2.53;0.90;;;;;;;4.74;100.00;101135.19;5417282;26;20010;-38
2024/04/24 03:42:08;;;;;;;4.50;1.00;;;;;;;4.84;100.00;101151.81;5420358;26;19999;-38
2024/04/24 03:44:33;;;;;;;3.70;1.77;;;;;;;4.85;100.00;101158.81;5420854;26;20428;-38
2024/04/24 03:46:59;;;;;;;2.93;0.90;;;;;;;4.81;100.00;101151.34;5420278;26;19996;-38
2024/04/24 03:49:24;;;;;;;2.27;0.73;;;;;;;4.74;100.00;101139.72;5420861;26;20002;-39
2024/04/24 03:51:49;;;;;;;3.13;0.87;;;;;;;4.72;100.00;101147.91;5420546;26;19996;-39
2024/04/24 03:54:15;;;;;;;3.93;1.00;;;;;;;4.80;100.00;101153.19;5420533;26;20500;-39
2024/04/24 03:56:40;;;;;;;3.43;1.30;;;;;;;4.76;100.00;101143.03;5419837;26;20424;-39
2024/04/24 03:59:05;;;;;;;3.77;0.80;;;;;;;4.76;100.00;101149.22;5420273;26;20321;-39
2024/04/24 04:01:30;;;;;;;3.03;1.10;;;;;;;4.71;100.00;101129.38;5419770;26;20006;-39
2024/04/24 04:03:56;;;;;;;2.07;0.73;;;;;;;4.67;100.00;101131.56;5420112;26;20007;-39
2024/04/24 04:06:21;;;;;;;2.90;0.93;;;;;;;4.68;100.00;101127.88;5419990;26;19995;-38
2024/04/24 04:08:47;;;;;;;2.97;0.70;;;;;;;4.64;100.00;101135.47;5420575;26;20214;-38
2024/04/24 04:11:12;;;;;;;1.53;0.80;;;;;;;4.57;100.00;101117.63;5420568;26;19999;-39
2024/04/24 04:13:37;;;;;;;4.03;0.87;;;;;;;4.66;100.00;101127.25;5419952;26;20475;-39
2024/04/24 04:16:03;;;;;;;3.40;0.90;;;;;;;4.58;100.00;101120.13;5419862;26;19999;-39
2024/04/24 04:18:28;;;;;;;3.08;0.80;;;;;;;4.65;100.00;101131.78;5419468;26;20031;-39
2024/04/24 04:20:53;;;;;;;4.20;0.70;;;;;;;4.59;100.00;101112.94;5420077;26;19999;-38
2024/04/24 04:23:19;;;;;;;4.20;1.10;;;;;;;4.62;100.00;101115.22;5419690;26;20000;-38
2024/04/24 04:25:44;;;;;;;3.27;0.97;;;;;;;4.57;100.00;101109.59;5420205;26;19995;-38
2024/04/24 04:28:09;;;;;;;2.10;0.60;;;;;;;4.58;100.00;101105.91;5419422;26;20021;-38
2024/04/24 04:30:34;;;;;;;2.43;0.93;;;;;;;4.54;100.00;101101.91;5420788;26;19995;-38
2024/04/24 04:33:00;;;;;;;6.20;1.10;;;;;;;4.56;100.00;101105.25;5419305;26;20002;-38
2024/04/24 04:35:25;;;;;;;4.77;1.13;;;;;;;4.54;100.00;101107.28;5420094;26;20022;-39
2024/04/24 04:37:50;;;;;;;2.40;0.90;;;;;;;4.54;100.00;101112.63;5419239;26;20010;-38
2024/04/24 04:40:16;;;;;;;2.77;1.00;;;;;;;4.50;100.00;101100.66;5419852;26;19995;-38
2024/04/24 04:42:42;;;;;;;5.27;1.60;;;;;;;4.55;100.00;101101.75;5419248;26;20003;-38
2024/04/24 04:45:08;;;;;;;3.25;1.02;;;;;;;4.57;100.00;101112.28;5419394;26;20007;-38
2024/04/24 04:47:33;;;;;;;4.43;0.97;;;;;;;4.54;100.00;101102.78;5419410;26;19995;-38
2024/04/24 04:49:58;;;;;;;2.50;0.90;;;;;;;4.59;100.00;101105.72;5419221;26;19996;-39
2024/04/24 04:52:24;;;;;;;5.77;1.10;;;;;;;4.57;100.00;101101.56;5419298;26;20007;-39
2024/04/24 04:54:49;;;;;;;4.13;1.23;;;;;;;4.63;100.00;101112.34;5419434;26;20010;-39
2024/04/24 04:57:14;;;;;;;3.63;0.90;;;;;;;4.62;100.00;101109.88;5419542;26;20450;-38
2024/04/24 04:59:39;;;;;;;4.33;1.00;;;;;;;4.56;100.00;101094.56;5419441;26;20034;-38
2024/04/24 05:02:05;;;;;;;3.67;1.03;;;;;;;4.67;100.00;101112.81;5419145;26;19991;-39
2024/04/24 05:04:31;;;;;;;3.53;0.87;;;;;;;4.70;100.00;101115.13;5419413;26;20065;-39
2024/04/24 05:06:56;;;;;;;4.03;1.02;;;;;;;4.69;100.00;101104.63;5419072;26;20591;-38
2024/04/24 05:09:21;;;;;;;4.43;1.10;;;;;;;4.69;100.00;101099.25;5419181;26;20006;-38
2024/04/24 05:11:48;;;;;;;4.23;1.10;;;;;;;4.75;100.00;101099.34;5419669;26;20319;-38
2024/04/24 05:14:14;;;;;;;2.35;0.80;;;;;;;4.84;100.00;101100.91;5418955;26;19992;-39
2024/04/24 05:16:39;;;;;;;3.60;1.05;;;;;;;4.96;100.00;101100.41;5419491;26;20335;-39
2024/04/24 05:19:04;;;;;;;2.90;1.00;;;;;;;5.09;100.00;101095.22;5418982;26;19995;-37
2024/04/24 05:21:30;;;;;;;3.57;0.87;;;;;;;5.16;100.00;101093.44;5418540;26;20003;-37
2024/04/24 05:23:55;;;;;;;5.50;1.30;;;;;;;5.20;100.00;101092.03;5418766;26;19999;-37
2024/04/24 05:29:06;;;;;;;3.03;0.90;;;;;;;5.11;100.00;101069.88;5420125;26;20006;-37
2024/04/24 05:31:31;;;;;;;3.30;0.90;;;;;;;5.22;100.00;101087.31;5419301;26;20000;-37
2024/04/24 05:33:57;;;;;;;2.97;0.90;;;;;;;5.22;100.00;101090.00;5418638;26;20002;-37
2024/04/24 05:36:22;;;;;;;3.33;1.00;;;;;;;5.26;100.00;101091.25;5418705;26;19996;-37
2024/04/24 05:38:47;;;;;;;4.80;1.23;;;;;;;5.40;100.00;101078.81;5418666;26;20013;-37
2024/04/24 05:41:13;;;;;;;3.30;0.70;;;;;;;5.53;100.00;101083.50;5418648;26;19996;-38
2024/04/24 05:43:38;;;;;;;4.77;1.13;;;;;;;5.72;100.00;101082.84;5418311;26;20072;-38
2024/04/24 05:46:03;;;;;;;2.53;1.00;;;;;;;5.77;100.00;101061.63;5419453;26;20020;-38
2024/04/24 05:48:29;;;;;;;3.57;1.00;;;;;;;5.86;100.00;101071.22;5416859;26;19996;-38
2024/04/24 05:50:55;;;;;;;3.23;0.97;;;;;;;5.94;100.00;101075.63;5418860;26;20274;-38
2024/04/24 05:53:20;;;;;;;4.00;1.25;;;;;;;5.94;100.00;101073.75;5418925;26;20443;-38
2024/04/24 05:55:45;;;;;;;4.97;1.00;;;;;;;5.83;100.00;101068.06;5418471;26;20014;-38
2024/04/24 05:58:11;;;;;;;3.63;0.97;;;;;;;5.74;100.00;101063.88;5418798;26;20011;-39
2024/04/24 06:00:36;;;;;;;9.80;1.90;;;;;;;5.63;100.00;101065.22;5418767;26;19995;-39
2024/04/24 06:03:01;;;;;;;3.80;1.30;;;;;;;5.48;100.00;101051.88;5417689;26;20007;-39
2024/04/24 06:05:27;;;;;;;2.28;1.10;;;;;;;5.49;100.00;101058.09;5418420;26;20000;-39
2024/04/24 06:07:53;;;;;;;3.97;0.90;;;;;;;5.37;100.00;101045.19;5418099;26;20485;-38
2024/04/24 06:10:18;;;;;;;2.72;1.00;;;;;;;5.54;100.00;101050.28;5418893;26;20163;-38
2024/04/24 06:12:43;;;;;;;3.30;1.07;;;;;;;5.61;100.00;101049.34;5417990;26;20014;-38
2024/04/24 06:15:08;;;;;;;7.03;1.20;;;;;;;5.80;100.00;101047.81;5418350;26;20008;-38
2024/04/24 06:17:34;;;;;;;4.93;1.10;;;;;;;5.88;100.00;101036.13;5418245;26;20000;-38
2024/04/24 06:19:59;;;;;;;3.43;1.07;;;;;;;6.02;100.00;101058.53;5418914;26;20004;-39
2024/04/24 06:22:24;;;;;;;5.00;1.17;;;;;;;6.07;100.00;101043.50;5417975;26;20003;-39
2024/04/24 06:24:50;;;;;;;4.87;1.10;;;;;;;6.21;100.00;101047.13;5418754;26;20076;-39
2024/04/24 06:27:15;;;;;;;4.57;0.87;;;;;;;6.29;100.00;101046.94;5417812;26;19996;-38
2024/04/24 06:29:40;;;;;;;3.30;1.10;;;;;;;6.34;100.00;101057.91;5417894;26;20003;-38
2024/04/24 06:32:06;;;;;;;3.67;1.20;;;;;;;6.41;100.00;101056.09;5418052;26;20424;-39
2024/04/24 06:34:31;;;;;;;4.43;1.33;;;;;;;6.43;100.00;101043.28;5418194;26;19996;-39
2024/04/24 06:36:57;;;;;;;7.93;1.23;;;;;;;6.35;100.00;101031.91;5418547;26;20014;-39
2024/04/24 06:39:22;;;;;;;3.47;0.87;;;;;;;6.41;100.00;101053.41;5417901;26;20044;-39
2024/04/24 06:41:48;;;;;;;2.47;0.83;;;;;;;6.39;100.00;101052.81;5417893;26;20438;-39
2024/04/24 06:44:13;;;;;;;3.55;1.00;;;;;;;6.34;100.00;101055.22;5417788;26;20493;-38
2024/04/24 06:46:38;;;;;;;2.60;0.90;;;;;;;6.30;100.00;101045.94;5418082;26;20389;-38
2024/04/24 06:49:04;;;;;;;4.40;1.03;;;;;;;6.14;100.00;101025.56;5418285;26;19999;-39
2024/04/24 06:51:30;;;;;;;5.25;1.20;;;;;;;6.19;100.00;101041.09;5417537;26;20258;-39
2024/04/24 06:53:55;;;;;;;3.35;1.13;;;;;;;6.27;100.00;101040.94;5417653;26;20439;-39
2024/04/24 06:56:21;;;;;;;3.47;0.70;;;;;;;6.28;100.00;101042.59;5417322;26;19991;-39
2024/04/24 06:58:46;;;;;;;4.87;1.20;;;;;;;6.14;100.00;101024.75;5418216;26;19996;-39
2024/04/24 07:01:11;;;;;;;6.53;1.20;;;;;;;6.12;100.00;101024.94;5417857;26;20478;-38
2024/04/24 07:03:37;;;;;;;4.00;1.10;;;;;;;6.04;100.00;101010.84;5417531;26;20018;-39
2024/04/24 07:06:04;;;;;;;4.03;1.40;;;;;;;6.23;100.00;101026.25;5417706;26;20121;-39
2024/04/24 07:08:31;;;;;;;5.93;1.17;;;;;;;6.31;100.00;101030.63;5417325;26;20003;-38
2024/04/24 07:10:58;;;;;;;4.13;1.00;;;;;;;6.35;100.00;101024.69;5417580;26;20455;-39
2024/04/24 07:13:23;;;;;;;;;;;;;;;6.48;100.00;101025.75;5417986;26;19996;-39
2024/04/24 07:15:49;;;;;;;5.43;1.50;;;;;;;6.35;100.00;101026.53;5419851;26;19933;-39
2024/04/24 07:18:14;;;;;;;2.70;0.90;;;;;;;6.34;100.00;101011.41;5420750;26;19991;-38
2024/04/24 07:20:39;;;;;;;4.70;1.27;;;;;;;6.48;100.00;101009.63;5420979;26;19995;-38
2024/04/24 07:23:05;;;;;;;4.43;1.40;;;;;;;6.71;100.00;101024.41;5420328;26;19999;-39
2024/04/24 07:25:32;;;;;;;3.07;1.73;;;;;;;6.85;100.00;101017.22;5421240;26;19987;-39
2024/04/24 07:27:57;;;;;;;3.42;1.13;;;;;;;7.03;100.00;101013.13;5420609;26;19991;-39
2024/04/24 07:30:23;;;;;;;6.95;1.05;;;;;;;7.02;100.00;101000.72;5421061;26;19995;-39
2024/04/24 07:32:48;;;;;;;3.97;1.15;;;;;;;7.09;100.00;101015.84;5420385;26;19995;-39
2024/04/24 07:35:14;;;;;;;5.55;1.20;;;;;;;7.09;100.00;100998.88;5420793;26;20020;-39
2024/04/24 07:37:40;;;;;;;5.07;1.50;;;;;;;7.12;100.00;100991.22;5420156;26;20428;-39
2024/04/24 07:40:06;;;;;;;5.72;1.65;;;;;;;7.21;100.00;100998.06;5420996;26;19992;-38
2024/04/24 07:42:31;;;;;;;4.97;1.10;;;;;;;7.19;100.00;100988.56;5420421;26;19994;-38
2024/04/24 07:44:56;;;;;;;5.03;1.83;;;;;;;7.24;100.00;100996.84;5421044;26;19995;-38
2024/04/24 07:47:22;;;;;;;5.30;1.23;;;;;;;7.27;100.00;100985.69;5420004;26;20003;-38
2024/04/24 07:49:47;;;;;;;5.95;1.42;;;;;;;7.29;100.00;100982.78;5420555;26;19995;-38
2024/04/24 07:52:13;;;;;;;5.17;1.30;;;;;;;7.36;100.00;100986.28;5420243;26;20423;-38
2024/04/24 07:54:38;;;;;;;5.18;1.30;;;;;;;7.41;100.00;100989.16;5419795;26;19991;-39
2024/04/24 07:57:03;;;;;;;5.47;1.43;;;;;;;7.43;100.00;100989.81;5420529;26;20077;-39
2024/04/24 07:59:29;;;;;;;4.33;1.10;;;;;;;7.36;100.00;100956.69;5420181;26;19998;-39
2024/04/24 08:01:54;;;;;;;5.90;1.40;;;;;;;7.48;100.00;100974.69;5420141;26;19992;-39
2024/04/24 08:04:19;;;;;;;7.17;2.40;;;;;;;7.54;100.00;100977.59;5420161;26;19999;-38
2024/04/24 08:06:45;;;;;;;6.73;1.67;;;;;;;7.57;100.00;100983.41;5419965;26;19992;-38
2024/04/24 08:09:10;;;;;;;6.13;1.40;;;;;;;7.62;100.00;100975.53;5420456;26;20315;-39
2024/04/24 08:11:36;;;;;;;10.15;1.70;;;;;;;7.65;100.00;100974.28;5420185;26;20122;-39
2024/04/24 08:14:03;;;;;;;7.53;1.98;;;;;;;7.71;100.00;100976.97;5420542;26;19999;-39
2024/04/24 08:16:29;;;;;;;6.35;1.58;;;;;;;7.82;100.00;100974.69;5419945;26;20025;-39
2024/04/24 08:18:54;;;;;;;;;;;;;;;7.99;100.00;100982.09;5421017;26;20064;-39
2024/04/24 08:21:19;;;;;;;6.13;1.73;;;;;;;7.76;97.33;100981.72;5419492;26;19932;-39
2024/04/24 08:23:45;;;;;;;4.27;1.27;;;;;;;7.70;97.38;100983.38;5419819;26;19991;-39
2024/04/24 08:26:10;;;;;;;6.60;1.27;;;;;;;7.72;99.84;100980.50;5419318;26;20068;-39
2024/04/24 08:28:35;;;;;;;7.47;1.47;;;;;;;7.88;98.85;100985.44;5420352;26;20374;-39
2024/04/24 08:31:02;;;;;;;5.83;1.70;;;;;;;7.98;97.15;100969.66;5420318;26;19991;-39
2024/04/24 08:33:34;;;;;;;4.97;1.30;;;;;;;8.10;96.93;100974.38;5419490;26;20002;-39
2024/04/24 08:36:04;;;;;;;5.72;1.60;;;;;;;8.14;96.37;100981.00;5419857;26;20064;-38
2024/04/24 08:38:29;;;;;;;4.88;1.48;;;;;;;8.29;95.23;100973.50;5419539;26;20007;-38
2024/04/24 08:41:02;;;;;;;5.43;1.38;;;;;;;8.36;94.29;100976.19;5419588;26;19999;-39
2024/04/24 08:43:27;;;;;;;6.40;1.40;;;;;;;8.29;93.00;100965.41;5419574;26;19996;-39
2024/04/24 08:45:54;;;;;;;8.33;2.57;;;;;;;8.36;96.16;100960.03;5419788;26;19996;-39
2024/04/24 08:48:21;;;;;;;5.63;1.73;;;;;;;8.43;96.41;100961.66;5419393;26;20068;-39
2024/04/24 08:50:49;;;;;;;5.82;1.50;;;;;;;8.54;96.69;100967.41;5419683;26;20315;-39
2024/04/24 08:53:16;;;;;;;6.43;1.90;;;;;;;8.55;97.64;100958.31;5419608;26;20078;-39
2024/04/24 08:55:45;;;;;;;6.68;2.08;;;;;;;8.36;96.09;100950.09;5419601;26;19991;-39
2024/04/24 08:58:13;;;;;;;6.55;2.00;;;;;;;8.22;97.81;100965.44;5419003;26;20060;-39
2024/04/24 09:00:40;;;;;;;11.77;2.28;;;;;;;8.10;98.86;100963.63;5419317;26;19996;-39
2024/04/24 09:03:15;;;;;;;7.80;1.98;;;;;;;7.91;100.00;100974.25;5419159;26;19996;-39
2024/04/24 09:05:43;;;;;;;7.75;2.58;;;;;;;7.86;100.00;100970.53;5419115;26;20006;-38
2024/04/24 09:08:08;;;;;;;6.72;1.73;;;;;;;7.88;100.00;100971.13;5418833;26;20557;-38
2024/04/24 09:10:34;;;;;;;8.95;2.13;;;;;;;7.97;100.00;100959.09;5419662;26;20000;-38
2024/04/24 09:13:01;;;;;;;6.70;1.80;;;;;;;8.17;100.00;100948.28;5418918;26;19996;-38
2024/04/24 09:15:28;;;;;;;4.88;1.50;;;;;;;8.38;100.00;100939.91;5419251;26;20476;-38
2024/04/24 09:17:53;;;;;;;3.85;1.20;;;;;;;8.56;100.00;100944.63;5419003;26;19999;-38
2024/04/24 09:20:18;;;;;;;4.97;1.47;;;;;;;8.69;100.00;100944.56;5418945;26;19999;-37
2024/04/24 09:22:46;;;;;;;5.53;1.40;;;;;;;8.72;98.41;100938.72;5418939;26;20076;-37
2024/04/24 09:25:11;;;;;;;5.57;1.58;;;;;;;8.80;98.91;100940.34;5419340;26;20065;-37
2024/04/24 09:27:36;;;;;;;5.43;1.50;;;;;;;8.86;97.74;100944.84;5418948;26;20407;-37
2024/04/24 09:30:02;;;;;;;5.33;1.80;;;;;;;8.90;96.99;100946.09;5419404;26;19995;-38
2024/04/24 09:32:27;;;;;;;6.00;1.58;;;;;;;8.99;97.69;100936.69;5418750;26;20440;-38
2024/04/24 09:34:53;;;;;;;7.40;1.97;;;;;;;9.24;97.78;100935.88;5419345;26;20069;-38
2024/04/24 09:37:18;;;;;;;6.93;1.30;;;;;;;9.23;94.48;100939.63;5417359;26;19995;-38
2024/04/24 09:39:44;;;;;;;5.50;1.55;;;;;;;8.99;93.46;100936.69;5418658;26;20006;-38
2024/04/24 09:42:10;;;;;;;6.57;1.80;;;;;;;8.88;95.58;100937.38;5418621;26;20330;-38
2024/04/24 09:44:43;;;;;;;7.43;1.85;;;;;;;8.65;95.75;100943.31;5418897;26;20072;-38
2024/04/24 09:47:10;;;;;;;5.70;1.58;;;;;;;8.52;97.01;100944.22;5418606;26;20373;-38
2024/04/24 09:49:38;;;;;;;;;;;;;;;8.79;98.84;100943.25;5419273;26;20080;-38
2024/04/24 09:52:03;;;;;;;8.23;1.70;;;;;;;9.13;97.54;100939.28;5419010;26;19949;-38
2024/04/24 09:54:29;;;;;;;5.18;1.60;;;;;;;9.32;92.56;100938.31;5418520;26;20010;-38
2024/04/24 09:56:58;;;;;;;6.82;1.50;;;;;;;9.28;90.17;100926.31;5418410;26;20340;-39
2024/04/24 09:59:31;;;;;;;6.15;1.27;;;;;;;9.31;91.80;100942.03;5418927;26;20007;-38
2024/04/24 10:02:04;;;;;;;6.85;1.52;;;;;;;9.16;91.80;100931.56;5418357;26;20451;-38
2024/04/24 10:04:31;;;;;;;6.03;1.70;;;;;;;9.19;90.67;100941.09;5418852;26;20061;-38
2024/04/24 10:07:00;;;;;;;6.40;1.75;;;;;;;9.25;90.42;100943.75;5418323;26;20068;-38
2024/04/24 10:09:31;;;;;;;4.97;1.35;;;;;;;9.23;90.92;100931.53;5418541;26;20006;-38
2024/04/24 10:12:04;;;;;;;5.72;1.30;;;;;;;9.11;92.20;100935.97;5418740;26;20008;-38
2024/04/24 10:14:35;;;;;;;5.28;1.33;;;;;;;9.00;93.79;100940.22;5418138;26;20004;-38
2024/04/24 10:17:00;;;;;;;5.53;1.40;;;;;;;8.90;94.97;100935.28;5418450;26;20002;-38
2024/04/24 10:19:27;;;;;;;3.47;0.95;;;;;;;8.72;93.59;100940.59;5418501;26;20003;-38
2024/04/24 10:21:53;;;;;;;3.92;1.08;;;;;;;8.54;90.09;100924.28;5418047;26;20533;-38
2024/04/24 10:24:20;;;;;;;3.90;0.80;;;;;;;8.79;91.92;100921.69;5418308;26;20315;-38
2024/04/24 10:26:48;;;;;;;3.03;0.82;;;;;;;9.19;94.31;100911.44;5417948;26;20010;-38
2024/04/24 10:29:16;;;;;;;3.05;1.27;;;;;;;9.52;91.74;100919.25;5418140;26;20348;-38
2024/04/24 10:31:43;;;;;;;2.45;0.80;;;;;;;9.62;87.97;100914.16;5417494;26;20014;-38
2024/04/24 10:34:10;;;;;;;1.00;0.43;;;;;;;9.70;85.98;100913.03;5417823;26;20000;-38
2024/04/24 10:36:36;;;;;;;1.80;0.60;;;;;;;9.88;88.02;100904.13;5417741;26;20011;-38
2024/04/24 10:39:04;;;;;;;2.42;0.82;;;;;;;9.99;86.48;100901.47;5418145;26;19999;-38
2024/04/24 10:41:30;;;;;;;4.47;0.90;;;;;;;10.13;85.26;100901.34;5417665;26;20443;-38
2024/04/24 10:43:56;;;;;;;2.65;0.80;;;;;;;10.32;85.99;100901.13;5417789;26;20007;-38
2024/04/24 10:46:24;;;;;;;2.13;0.80;;;;;;;10.44;83.23;100894.94;5417791;26;20072;-38
2024/04/24 10:49:00;;;;;;;1.90;0.75;;;;;;;10.66;83.81;100896.09;5417927;26;19996;-38
2024/04/24 10:51:30;;;;;;;1.55;0.90;;;;;;;10.83;79.50;100891.69;5417904;26;19996;-38
2024/04/24 10:53:58;;;;;;;3.55;0.75;;;;;;;10.76;74.38;100896.34;5417033;26;20005;-38
2024/04/24 10:56:31;;;;;;;2.78;0.70;;;;;;;10.79;75.29;100886.97;5417774;26;19996;-38
2024/04/24 10:58:57;;;;;;;3.38;0.77;;;;;;;11.03;75.97;100888.66;5417634;26;20018;-38
2024/04/24 11:01:29;;;;;;;3.30;0.88;;;;;;;11.17;76.71;100878.41;5418565;26;19999;-38
2024/04/24 11:03:55;;;;;;;1.30;0.60;;;;;;;11.26;72.54;100890.53;5417304;26;20002;-38
2024/04/24 11:06:21;;;;;;;1.67;0.60;;;;;;;11.22;70.41;100877.72;5418274;26;20048;-38
2024/04/24 11:08:50;;;;;;;3.35;0.98;;;;;;;11.26;69.89;100885.13;5417392;26;20434;-38
2024/04/24 11:11:20;;;;;;;2.03;0.77;;;;;;;11.20;70.96;100875.25;5417858;26;20000;-38
2024/04/24 11:13:47;;;;;;;2.50;0.82;;;;;;;11.25;70.02;100880.78;5417665;26;19999;-38
2024/04/24 11:16:13;;;;;;;2.30;0.80;;;;;;;11.38;71.02;100877.03;5417447;26;19996;-38
2024/04/24 11:18:38;;;;;;;2.10;0.85;;;;;;;11.53;71.17;100869.25;5417334;26;20447;-38
2024/04/24 11:21:03;;;;;;;3.80;0.90;;;;;;;11.64;71.00;100867.59;5418134;26;20420;-38
2024/04/24 11:23:29;;;;;;;3.95;1.02;;;;;;;11.69;69.72;100866.88;5417411;26;20432;-38
2024/04/24 11:25:54;;;;;;;3.90;1.23;;;;;;;11.49;69.02;100835.56;5417012;26;20025;-38